LKMT/OSR METAR and TAF weather

Enter ICAO airport designator
Station Type Date Time Source
LKMT METAR 2020/04/02 02:00 UTC NOAA

LKMT 020200Z 21002KT CAVOK M03/M08 Q1015 NOSIG


Station Type Date Time Source
LKMT Decoded METAR 2020/04/02 02:00 UTC NOAA

Ostrava / Mosnov, Czech Republic (LKMT) 49-41N 018-07E 256M
Apr 01, 2020 - 10:00 PM EDT / 2020.04.02 0200 UTC
Wind: from the SSW (210 degrees) at 2 MPH (2 KT):0
Visibility: greater than 7 mile(s):0
Temperature: 26 F (-3 C)
Dew Point: 17 F (-8 C)
Relative Humidity: 68%
Pressure (altimeter): 29.97 in. Hg (1015 hPa)
ob: LKMT 020200Z 21002KT CAVOK M03/M08 Q1015 NOSIG
cycle: 2

Station Type Date Time Source
LKMT TAF 2020/04/01 18:08 UTC NOAA

TAF LKMT 011700Z 0118/0300 23010KT CAVOK
TEMPO 0208/0212 24014G24KT

Example: see airport list